sensor_id;sensor_type;location;lat;lon;timestamp;P1;durP1;ratioP1;P2;durP2;ratioP2
74912;SDS011;63878;55.624;37.304;2022-09-29T00:01:18;4.97;;;4.10;;
74912;SDS011;63878;55.624;37.304;2022-09-29T00:03:44;6.72;;;4.07;;
74912;SDS011;63878;55.624;37.304;2022-09-29T00:06:11;6.13;;;4.75;;
74912;SDS011;63878;55.624;37.304;2022-09-29T00:08:38;6.60;;;4.80;;
74912;SDS011;63878;55.624;37.304;2022-09-29T00:11:07;7.70;;;5.30;;
74912;SDS011;63878;55.624;37.304;2022-09-29T00:13:34;6.07;;;4.75;;
74912;SDS011;63878;55.624;37.304;2022-09-29T00:16:00;6.88;;;4.95;;
74912;SDS011;63878;55.624;37.304;2022-09-29T00:18:28;7.05;;;4.90;;
74912;SDS011;63878;55.624;37.304;2022-09-29T00:20:58;6.78;;;5.40;;
74912;SDS011;63878;55.624;37.304;2022-09-29T00:23:26;9.00;;;5.75;;
74912;SDS011;63878;55.624;37.304;2022-09-29T00:26:09;5.75;;;4.80;;
74912;SDS011;63878;55.624;37.304;2022-09-29T00:28:40;7.43;;;5.25;;
74912;SDS011;63878;55.624;37.304;2022-09-29T00:31:11;6.55;;;5.10;;
74912;SDS011;63878;55.624;37.304;2022-09-29T00:33:36;7.38;;;4.88;;
74912;SDS011;63878;55.624;37.304;2022-09-29T00:36:04;7.18;;;5.13;;
74912;SDS011;63878;55.624;37.304;2022-09-29T00:38:31;8.27;;;5.60;;
74912;SDS011;63878;55.624;37.304;2022-09-29T00:40:57;7.10;;;5.20;;
74912;SDS011;63878;55.624;37.304;2022-09-29T00:43:25;7.72;;;4.75;;
74912;SDS011;63878;55.624;37.304;2022-09-29T00:46:32;4.88;;;4.32;;
74912;SDS011;63878;55.624;37.304;2022-09-29T00:51:59;6.35;;;4.57;;
74912;SDS011;63878;55.624;37.304;2022-09-29T00:54:51;6.05;;;4.70;;
74912;SDS011;63878;55.624;37.304;2022-09-29T00:57:20;8.02;;;4.60;;
74912;SDS011;63878;55.624;37.304;2022-09-29T00:59:52;9.68;;;5.43;;
74912;SDS011;63878;55.624;37.304;2022-09-29T01:02:29;8.05;;;4.78;;
74912;SDS011;63878;55.624;37.304;2022-09-29T01:05:00;5.07;;;3.95;;
74912;SDS011;63878;55.624;37.304;2022-09-29T01:07:29;6.15;;;4.07;;
74912;SDS011;63878;55.624;37.304;2022-09-29T01:09:54;6.10;;;4.50;;
74912;SDS011;63878;55.624;37.304;2022-09-29T01:12:21;5.72;;;4.07;;
74912;SDS011;63878;55.624;37.304;2022-09-29T01:14:47;5.28;;;4.07;;
74912;SDS011;63878;55.624;37.304;2022-09-29T01:17:13;6.13;;;4.53;;
74912;SDS011;63878;55.624;37.304;2022-09-29T01:39:42;6.47;;;4.00;;
74912;SDS011;63878;55.624;37.304;2022-09-29T01:42:31;4.18;;;3.40;;
74912;SDS011;63878;55.624;37.304;2022-09-29T01:45:14;5.22;;;3.60;;
74912;SDS011;63878;55.624;37.304;2022-09-29T01:47:43;3.47;;;2.78;;
74912;SDS011;63878;55.624;37.304;2022-09-29T01:50:19;4.75;;;3.28;;
74912;SDS011;63878;55.624;37.304;2022-09-29T01:52:51;3.83;;;2.83;;
74912;SDS011;63878;55.624;37.304;2022-09-29T01:55:24;5.45;;;3.65;;
74912;SDS011;63878;55.624;37.304;2022-09-29T01:58:01;4.90;;;3.28;;
74912;SDS011;63878;55.624;37.304;2022-09-29T02:05:32;7.15;;;3.35;;
74912;SDS011;63878;55.624;37.304;2022-09-29T02:08:48;3.83;;;3.53;;
74912;SDS011;63878;55.624;37.304;2022-09-29T02:11:13;4.75;;;3.00;;
74912;SDS011;63878;55.624;37.304;2022-09-29T02:16:28;4.80;;;3.35;;
74912;SDS011;63878;55.624;37.304;2022-09-29T02:19:02;4.18;;;3.33;;
74912;SDS011;63878;55.624;37.304;2022-09-29T02:21:32;4.90;;;3.97;;
74912;SDS011;63878;55.624;37.304;2022-09-29T02:23:58;4.63;;;3.53;;
74912;SDS011;63878;55.624;37.304;2022-09-29T02:26:25;3.75;;;3.35;;
74912;SDS011;63878;55.624;37.304;2022-09-29T02:28:56;7.28;;;3.47;;
74912;SDS011;63878;55.624;37.304;2022-09-29T02:31:22;5.80;;;3.55;;
74912;SDS011;63878;55.624;37.304;2022-09-29T02:33:48;5.50;;;3.83;;
74912;SDS011;63878;55.624;37.304;2022-09-29T02:39:23;3.80;;;3.33;;
74912;SDS011;63878;55.624;37.304;2022-09-29T02:42:17;3.95;;;3.53;;
74912;SDS011;63878;55.624;37.304;2022-09-29T02:48:04;4.07;;;3.67;;
74912;SDS011;63878;55.624;37.304;2022-09-29T02:53:11;6.22;;;4.00;;
74912;SDS011;63878;55.624;37.304;2022-09-29T02:55:49;5.10;;;3.70;;
74912;SDS011;63878;55.624;37.304;2022-09-29T02:58:19;5.95;;;4.40;;
74912;SDS011;63878;55.624;37.304;2022-09-29T03:00:57;6.68;;;4.30;;
74912;SDS011;63878;55.624;37.304;2022-09-29T03:03:24;5.88;;;3.75;;
74912;SDS011;63878;55.624;37.304;2022-09-29T03:05:49;5.57;;;3.80;;
74912;SDS011;63878;55.624;37.304;2022-09-29T03:08:16;5.20;;;4.10;;
74912;SDS011;63878;55.624;37.304;2022-09-29T03:10:42;6.88;;;4.35;;
74912;SDS011;63878;55.624;37.304;2022-09-29T03:13:07;5.68;;;3.97;;
74912;SDS011;63878;55.624;37.304;2022-09-29T03:15:33;9.13;;;4.10;;
74912;SDS011;63878;55.624;37.304;2022-09-29T03:17:58;8.70;;;4.50;;
74912;SDS011;63878;55.624;37.304;2022-09-29T03:20:24;5.18;;;3.70;;
74912;SDS011;63878;55.624;37.304;2022-09-29T03:22:50;4.95;;;3.97;;
74912;SDS011;63878;55.624;37.304;2022-09-29T03:25:20;6.03;;;4.15;;
74912;SDS011;63878;55.624;37.304;2022-09-29T03:27:45;7.13;;;3.60;;
74912;SDS011;63878;55.624;37.304;2022-09-29T03:30:12;4.45;;;4.00;;
74912;SDS011;63878;55.624;37.304;2022-09-29T03:32:37;5.82;;;3.90;;
74912;SDS011;63878;55.624;37.304;2022-09-29T03:35:03;5.13;;;3.85;;
74912;SDS011;63878;55.624;37.304;2022-09-29T03:37:29;5.00;;;4.03;;
74912;SDS011;63878;55.624;37.304;2022-09-29T03:39:55;5.72;;;3.92;;
74912;SDS011;63878;55.624;37.304;2022-09-29T03:42:20;5.25;;;4.28;;
74912;SDS011;63878;55.624;37.304;2022-09-29T03:44:46;5.63;;;4.22;;
74912;SDS011;63878;55.624;37.304;2022-09-29T03:47:12;4.88;;;3.92;;
74912;SDS011;63878;55.624;37.304;2022-09-29T03:49:38;5.50;;;4.13;;
74912;SDS011;63878;55.624;37.304;2022-09-29T03:52:03;5.30;;;4.55;;
74912;SDS011;63878;55.624;37.304;2022-09-29T03:54:29;6.47;;;5.07;;
74912;SDS011;63878;55.624;37.304;2022-09-29T03:56:55;5.88;;;4.47;;
74912;SDS011;63878;55.624;37.304;2022-09-29T03:59:21;5.15;;;4.07;;
74912;SDS011;63878;55.624;37.304;2022-09-29T04:01:47;6.50;;;4.28;;
74912;SDS011;63878;55.624;37.304;2022-09-29T04:04:12;7.57;;;5.10;;
74912;SDS011;63878;55.624;37.304;2022-09-29T04:06:38;7.05;;;4.25;;
74912;SDS011;63878;55.624;37.304;2022-09-29T04:09:03;4.85;;;3.92;;
74912;SDS011;63878;55.624;37.304;2022-09-29T04:11:29;5.25;;;3.78;;
74912;SDS011;63878;55.624;37.304;2022-09-29T04:13:55;5.97;;;4.40;;
74912;SDS011;63878;55.624;37.304;2022-09-29T04:16:21;4.85;;;4.18;;
74912;SDS011;63878;55.624;37.304;2022-09-29T04:18:46;6.05;;;3.95;;
74912;SDS011;63878;55.624;37.304;2022-09-29T04:21:12;6.15;;;4.15;;
74912;SDS011;63878;55.624;37.304;2022-09-29T04:23:38;4.90;;;3.47;;
74912;SDS011;63878;55.624;37.304;2022-09-29T04:26:04;4.68;;;3.67;;
74912;SDS011;63878;55.624;37.304;2022-09-29T04:28:30;4.65;;;3.80;;
74912;SDS011;63878;55.624;37.304;2022-09-29T04:30:57;7.25;;;4.40;;
74912;SDS011;63878;55.624;37.304;2022-09-29T04:33:23;3.83;;;3.47;;
74912;SDS011;63878;55.624;37.304;2022-09-29T04:35:49;5.07;;;3.90;;
74912;SDS011;63878;55.624;37.304;2022-09-29T04:38:14;5.70;;;3.88;;
74912;SDS011;63878;55.624;37.304;2022-09-29T04:40:40;4.78;;;3.30;;
74912;SDS011;63878;55.624;37.304;2022-09-29T04:43:06;5.68;;;3.72;;
74912;SDS011;63878;55.624;37.304;2022-09-29T04:45:33;4.72;;;3.67;;
74912;SDS011;63878;55.624;37.304;2022-09-29T04:47:58;6.20;;;4.07;;
74912;SDS011;63878;55.624;37.304;2022-09-29T04:50:24;5.25;;;3.95;;
74912;SDS011;63878;55.624;37.304;2022-09-29T04:52:50;6.97;;;4.35;;
74912;SDS011;63878;55.624;37.304;2022-09-29T04:55:16;5.65;;;4.20;;
74912;SDS011;63878;55.624;37.304;2022-09-29T04:57:42;6.35;;;4.20;;
74912;SDS011;63878;55.624;37.304;2022-09-29T05:00:08;4.07;;;3.03;;
74912;SDS011;63878;55.624;37.304;2022-09-29T05:02:35;5.03;;;3.75;;
74912;SDS011;63878;55.624;37.304;2022-09-29T05:05:01;7.15;;;3.97;;
74912;SDS011;63878;55.624;37.304;2022-09-29T05:07:28;5.25;;;3.90;;
74912;SDS011;63878;55.624;37.304;2022-09-29T05:09:54;6.03;;;3.85;;
74912;SDS011;63878;55.624;37.304;2022-09-29T05:12:19;4.38;;;3.72;;
74912;SDS011;63878;55.624;37.304;2022-09-29T05:14:45;5.95;;;3.70;;
74912;SDS011;63878;55.624;37.304;2022-09-29T05:17:11;5.93;;;4.47;;
74912;SDS011;63878;55.624;37.304;2022-09-29T05:19:37;5.85;;;4.82;;
74912;SDS011;63878;55.624;37.304;2022-09-29T05:22:03;6.68;;;4.65;;
74912;SDS011;63878;55.624;37.304;2022-09-29T05:24:29;5.82;;;4.85;;
74912;SDS011;63878;55.624;37.304;2022-09-29T05:26:54;6.75;;;4.40;;
74912;SDS011;63878;55.624;37.304;2022-09-29T05:29:20;8.48;;;4.68;;
74912;SDS011;63878;55.624;37.304;2022-09-29T05:31:46;8.50;;;4.72;;
74912;SDS011;63878;55.624;37.304;2022-09-29T05:34:11;6.60;;;4.75;;
74912;SDS011;63878;55.624;37.304;2022-09-29T05:36:37;7.13;;;5.05;;
74912;SDS011;63878;55.624;37.304;2022-09-29T05:39:02;8.05;;;5.43;;
74912;SDS011;63878;55.624;37.304;2022-09-29T05:41:28;7.15;;;5.32;;
74912;SDS011;63878;55.624;37.304;2022-09-29T05:43:54;8.30;;;6.03;;
74912;SDS011;63878;55.624;37.304;2022-09-29T05:46:21;7.57;;;5.65;;
74912;SDS011;63878;55.624;37.304;2022-09-29T05:48:47;10.90;;;6.05;;
74912;SDS011;63878;55.624;37.304;2022-09-29T05:51:15;8.05;;;5.88;;
74912;SDS011;63878;55.624;37.304;2022-09-29T05:53:43;7.60;;;5.90;;
74912;SDS011;63878;55.624;37.304;2022-09-29T05:56:12;8.35;;;5.55;;
74912;SDS011;63878;55.624;37.304;2022-09-29T05:58:40;8.00;;;5.60;;
74912;SDS011;63878;55.624;37.304;2022-09-29T06:01:07;9.70;;;6.97;;
74912;SDS011;63878;55.624;37.304;2022-09-29T06:03:34;10.77;;;6.43;;
74912;SDS011;63878;55.624;37.304;2022-09-29T06:06:19;9.00;;;6.10;;
74912;SDS011;63878;55.624;37.304;2022-09-29T06:08:46;10.73;;;7.38;;
74912;SDS011;63878;55.624;37.304;2022-09-29T06:11:14;11.05;;;5.88;;
74912;SDS011;63878;55.624;37.304;2022-09-29T06:13:41;11.15;;;6.47;;
74912;SDS011;63878;55.624;37.304;2022-09-29T06:16:08;9.05;;;6.18;;
74912;SDS011;63878;55.624;37.304;2022-09-29T06:18:35;11.40;;;7.07;;
74912;SDS011;63878;55.624;37.304;2022-09-29T06:23:34;8.40;;;5.70;;
74912;SDS011;63878;55.624;37.304;2022-09-29T06:26:01;8.80;;;5.80;;
74912;SDS011;63878;55.624;37.304;2022-09-29T06:28:28;9.82;;;6.70;;
74912;SDS011;63878;55.624;37.304;2022-09-29T06:31:00;10.95;;;6.57;;
74912;SDS011;63878;55.624;37.304;2022-09-29T06:33:28;11.05;;;8.18;;
74912;SDS011;63878;55.624;37.304;2022-09-29T06:35:55;9.00;;;6.82;;
74912;SDS011;63878;55.624;37.304;2022-09-29T06:38:21;8.15;;;6.45;;
74912;SDS011;63878;55.624;37.304;2022-09-29T06:40:47;10.82;;;6.63;;
74912;SDS011;63878;55.624;37.304;2022-09-29T06:43:12;7.63;;;6.15;;
74912;SDS011;63878;55.624;37.304;2022-09-29T06:45:38;8.57;;;6.07;;
74912;SDS011;63878;55.624;37.304;2022-09-29T06:48:03;10.27;;;6.82;;
74912;SDS011;63878;55.624;37.304;2022-09-29T06:50:28;9.52;;;5.53;;
74912;SDS011;63878;55.624;37.304;2022-09-29T06:52:54;10.48;;;7.53;;
74912;SDS011;63878;55.624;37.304;2022-09-29T06:55:20;8.52;;;6.03;;
74912;SDS011;63878;55.624;37.304;2022-09-29T06:57:45;10.15;;;6.32;;
74912;SDS011;63878;55.624;37.304;2022-09-29T07:00:11;8.07;;;5.15;;
74912;SDS011;63878;55.624;37.304;2022-09-29T07:02:37;9.50;;;5.90;;
74912;SDS011;63878;55.624;37.304;2022-09-29T07:05:02;8.70;;;5.80;;
74912;SDS011;63878;55.624;37.304;2022-09-29T07:07:28;10.13;;;6.63;;
74912;SDS011;63878;55.624;37.304;2022-09-29T07:09:53;9.05;;;6.40;;
74912;SDS011;63878;55.624;37.304;2022-09-29T07:12:22;9.18;;;6.35;;
74912;SDS011;63878;55.624;37.304;2022-09-29T07:14:47;8.57;;;5.13;;
74912;SDS011;63878;55.624;37.304;2022-09-29T07:17:13;9.60;;;7.00;;
74912;SDS011;63878;55.624;37.304;2022-09-29T07:19:39;9.43;;;6.00;;
74912;SDS011;63878;55.624;37.304;2022-09-29T07:22:04;9.20;;;5.65;;
74912;SDS011;63878;55.624;37.304;2022-09-29T07:24:30;9.52;;;6.28;;
74912;SDS011;63878;55.624;37.304;2022-09-29T07:26:56;11.05;;;6.88;;
74912;SDS011;63878;55.624;37.304;2022-09-29T07:29:21;11.80;;;5.70;;
74912;SDS011;63878;55.624;37.304;2022-09-29T07:31:47;10.75;;;7.25;;
74912;SDS011;63878;55.624;37.304;2022-09-29T07:34:12;9.63;;;5.60;;
74912;SDS011;63878;55.624;37.304;2022-09-29T07:36:38;12.07;;;8.25;;
74912;SDS011;63878;55.624;37.304;2022-09-29T07:39:04;8.55;;;4.78;;
74912;SDS011;63878;55.624;37.304;2022-09-29T07:41:30;9.38;;;4.90;;
74912;SDS011;63878;55.624;37.304;2022-09-29T07:43:55;6.65;;;3.90;;
74912;SDS011;63878;55.624;37.304;2022-09-29T07:46:21;8.90;;;5.57;;
74912;SDS011;63878;55.624;37.304;2022-09-29T07:48:46;12.40;;;6.68;;
74912;SDS011;63878;55.624;37.304;2022-09-29T07:51:16;5.97;;;4.00;;
74912;SDS011;63878;55.624;37.304;2022-09-29T07:53:46;7.35;;;4.70;;
74912;SDS011;63878;55.624;37.304;2022-09-29T07:56:19;7.63;;;5.00;;
74912;SDS011;63878;55.624;37.304;2022-09-29T07:58:46;9.45;;;5.15;;
74912;SDS011;63878;55.624;37.304;2022-09-29T08:01:13;8.23;;;5.32;;
74912;SDS011;63878;55.624;37.304;2022-09-29T08:03:40;7.38;;;3.65;;
74912;SDS011;63878;55.624;37.304;2022-09-29T08:06:07;7.55;;;4.55;;
74912;SDS011;63878;55.624;37.304;2022-09-29T08:08:36;11.07;;;7.05;;
74912;SDS011;63878;55.624;37.304;2022-09-29T08:11:06;7.68;;;4.85;;
74912;SDS011;63878;55.624;37.304;2022-09-29T08:13:53;8.98;;;6.07;;
74912;SDS011;63878;55.624;37.304;2022-09-29T08:16:22;4.82;;;3.38;;
74912;SDS011;63878;55.624;37.304;2022-09-29T08:18:58;6.55;;;3.50;;
74912;SDS011;63878;55.624;37.304;2022-09-29T08:21:37;9.63;;;5.90;;
74912;SDS011;63878;55.624;37.304;2022-09-29T08:24:20;7.63;;;4.75;;
74912;SDS011;63878;55.624;37.304;2022-09-29T08:26:56;6.13;;;4.18;;
74912;SDS011;63878;55.624;37.304;2022-09-29T08:30:04;8.32;;;3.03;;
74912;SDS011;63878;55.624;37.304;2022-09-29T08:32:35;7.55;;;3.20;;
74912;SDS011;63878;55.624;37.304;2022-09-29T08:35:26;8.13;;;3.78;;
74912;SDS011;63878;55.624;37.304;2022-09-29T08:37:59;7.32;;;3.03;;
74912;SDS011;63878;55.624;37.304;2022-09-29T08:40:33;5.47;;;2.60;;
74912;SDS011;63878;55.624;37.304;2022-09-29T08:49:46;50.20;;;44.83;;
74912;SDS011;63878;55.624;37.304;2022-09-29T08:52:46;60.33;;;53.70;;
74912;SDS011;63878;55.624;37.304;2022-09-29T08:57:57;32.17;;;22.88;;
74912;SDS011;63878;55.624;37.304;2022-09-29T09:00:40;20.10;;;14.20;;
74912;SDS011;63878;55.624;37.304;2022-09-29T09:06:06;9.80;;;6.78;;
74912;SDS011;63878;55.624;37.304;2022-09-29T09:11:35;7.13;;;5.38;;
74912;SDS011;63878;55.624;37.304;2022-09-29T09:20:03;36.03;;;32.20;;
74912;SDS011;63878;55.624;37.304;2022-09-29T09:22:55;103.72;;;93.93;;
74912;SDS011;63878;55.624;37.304;2022-09-29T09:31:02;103.70;;;93.97;;
74912;SDS011;63878;55.624;37.304;2022-09-29T09:34:05;69.30;;;62.90;;
74912;SDS011;63878;55.624;37.304;2022-09-29T09:36:44;98.22;;;88.70;;
74912;SDS011;63878;55.624;37.304;2022-09-29T09:39:25;85.40;;;77.18;;
74912;SDS011;63878;55.624;37.304;2022-09-29T09:41:57;96.00;;;87.35;;
74912;SDS011;63878;55.624;37.304;2022-09-29T09:44:41;84.97;;;77.15;;
74912;SDS011;63878;55.624;37.304;2022-09-29T09:50:15;71.32;;;64.78;;
74912;SDS011;63878;55.624;37.304;2022-09-29T09:56:23;59.92;;;53.83;;
74912;SDS011;63878;55.624;37.304;2022-09-29T10:01:37;43.53;;;39.30;;
74912;SDS011;63878;55.624;37.304;2022-09-29T10:04:14;15.10;;;13.55;;
74912;SDS011;63878;55.624;37.304;2022-09-29T10:06:40;40.13;;;36.03;;
74912;SDS011;63878;55.624;37.304;2022-09-29T10:09:09;34.80;;;31.45;;
74912;SDS011;63878;55.624;37.304;2022-09-29T10:11:40;32.70;;;29.50;;
74912;SDS011;63878;55.624;37.304;2022-09-29T10:14:22;31.77;;;28.83;;
74912;SDS011;63878;55.624;37.304;2022-09-29T10:16:52;26.25;;;23.83;;
74912;SDS011;63878;55.624;37.304;2022-09-29T10:19:23;23.27;;;20.98;;
74912;SDS011;63878;55.624;37.304;2022-09-29T10:22:25;12.77;;;11.52;;
74912;SDS011;63878;55.624;37.304;2022-09-29T10:24:53;18.25;;;15.77;;
74912;SDS011;63878;55.624;37.304;2022-09-29T10:27:29;11.88;;;6.13;;
74912;SDS011;63878;55.624;37.304;2022-09-29T10:29:55;58.60;;;52.42;;
74912;SDS011;63878;55.624;37.304;2022-09-29T10:32:28;10.10;;;7.15;;
74912;SDS011;63878;55.624;37.304;2022-09-29T10:35:00;9.68;;;7.03;;
74912;SDS011;63878;55.624;37.304;2022-09-29T10:37:51;7.18;;;4.95;;
74912;SDS011;63878;55.624;37.304;2022-09-29T10:40:24;12.23;;;8.18;;
74912;SDS011;63878;55.624;37.304;2022-09-29T10:42:50;7.03;;;5.20;;
74912;SDS011;63878;55.624;37.304;2022-09-29T10:50:27;7.68;;;5.40;;
74912;SDS011;63878;55.624;37.304;2022-09-29T10:52:59;9.95;;;5.90;;
74912;SDS011;63878;55.624;37.304;2022-09-29T10:55:33;6.72;;;5.07;;
74912;SDS011;63878;55.624;37.304;2022-09-29T10:58:02;8.75;;;5.00;;
74912;SDS011;63878;55.624;37.304;2022-09-29T11:00:48;8.20;;;5.38;;
74912;SDS011;63878;55.624;37.304;2022-09-29T11:03:45;6.35;;;5.03;;
74912;SDS011;63878;55.624;37.304;2022-09-29T11:06:14;10.30;;;5.55;;
74912;SDS011;63878;55.624;37.304;2022-09-29T11:11:29;7.00;;;4.97;;
74912;SDS011;63878;55.624;37.304;2022-09-29T11:13:58;7.97;;;5.40;;
74912;SDS011;63878;55.624;37.304;2022-09-29T11:16:31;5.90;;;4.72;;
74912;SDS011;63878;55.624;37.304;2022-09-29T11:19:02;76.13;;;62.50;;
74912;SDS011;63878;55.624;37.304;2022-09-29T11:21:42;55.80;;;37.85;;
74912;SDS011;63878;55.624;37.304;2022-09-29T11:46:44;7.05;;;4.13;;
74912;SDS011;63878;55.624;37.304;2022-09-29T11:57:31;7.88;;;5.18;;
74912;SDS011;63878;55.624;37.304;2022-09-29T12:07:44;8.70;;;4.97;;
74912;SDS011;63878;55.624;37.304;2022-09-29T12:13:12;6.68;;;4.70;;
74912;SDS011;63878;55.624;37.304;2022-09-29T12:18:27;7.43;;;4.65;;
74912;SDS011;63878;55.624;37.304;2022-09-29T12:21:00;7.45;;;4.75;;
74912;SDS011;63878;55.624;37.304;2022-09-29T12:23:27;7.05;;;5.57;;
74912;SDS011;63878;55.624;37.304;2022-09-29T12:25:59;6.03;;;4.60;;
74912;SDS011;63878;55.624;37.304;2022-09-29T12:31:15;6.95;;;5.45;;
74912;SDS011;63878;55.624;37.304;2022-09-29T12:33:52;8.35;;;5.32;;
74912;SDS011;63878;55.624;37.304;2022-09-29T12:38:59;22.15;;;14.40;;
74912;SDS011;63878;55.624;37.304;2022-09-29T12:41:34;7.25;;;4.80;;
74912;SDS011;63878;55.624;37.304;2022-09-29T12:45:07;7.50;;;4.50;;
74912;SDS011;63878;55.624;37.304;2022-09-29T12:47:19;6.78;;;4.90;;
74912;SDS011;63878;55.624;37.304;2022-09-29T12:50:02;7.97;;;4.80;;
74912;SDS011;63878;55.624;37.304;2022-09-29T12:52:39;5.88;;;4.10;;
74912;SDS011;63878;55.624;37.304;2022-09-29T12:55:22;8.10;;;5.03;;
74912;SDS011;63878;55.624;37.304;2022-09-29T12:57:52;7.10;;;5.28;;
74912;SDS011;63878;55.624;37.304;2022-09-29T13:00:22;7.03;;;5.40;;
74912;SDS011;63878;55.624;37.304;2022-09-29T13:11:32;10.32;;;6.43;;
74912;SDS011;63878;55.624;37.304;2022-09-29T13:16:47;7.72;;;5.47;;
74912;SDS011;63878;55.624;37.304;2022-09-29T13:28:20;6.45;;;5.05;;
74912;SDS011;63878;55.624;37.304;2022-09-29T13:31:10;5.75;;;4.57;;
74912;SDS011;63878;55.624;37.304;2022-09-29T13:33:44;7.20;;;4.97;;
74912;SDS011;63878;55.624;37.304;2022-09-29T13:36:28;10.10;;;6.35;;
74912;SDS011;63878;55.624;37.304;2022-09-29T13:39:04;6.03;;;4.03;;
74912;SDS011;63878;55.624;37.304;2022-09-29T13:51:46;6.35;;;4.40;;
74912;SDS011;63878;55.624;37.304;2022-09-29T13:56:50;6.28;;;4.25;;
74912;SDS011;63878;55.624;37.304;2022-09-29T13:59:23;7.07;;;4.32;;
74912;SDS011;63878;55.624;37.304;2022-09-29T14:01:50;6.15;;;4.28;;
74912;SDS011;63878;55.624;37.304;2022-09-29T14:07:01;6.10;;;4.32;;
74912;SDS011;63878;55.624;37.304;2022-09-29T14:09:32;9.52;;;5.22;;
74912;SDS011;63878;55.624;37.304;2022-09-29T14:12:02;7.82;;;4.70;;
74912;SDS011;63878;55.624;37.304;2022-09-29T14:14:33;6.95;;;5.10;;
74912;SDS011;63878;55.624;37.304;2022-09-29T14:17:06;8.30;;;5.15;;
74912;SDS011;63878;55.624;37.304;2022-09-29T14:30:16;6.57;;;4.38;;
74912;SDS011;63878;55.624;37.304;2022-09-29T14:35:31;5.72;;;3.95;;
74912;SDS011;63878;55.624;37.304;2022-09-29T14:38:16;7.82;;;4.75;;
74912;SDS011;63878;55.624;37.304;2022-09-29T14:41:00;7.43;;;4.43;;
74912;SDS011;63878;55.624;37.304;2022-09-29T14:43:35;10.45;;;5.97;;
74912;SDS011;63878;55.624;37.304;2022-09-29T14:57:31;6.03;;;3.45;;
74912;SDS011;63878;55.624;37.304;2022-09-29T15:02:28;4.43;;;3.25;;
74912;SDS011;63878;55.624;37.304;2022-09-29T15:04:54;4.93;;;3.63;;
74912;SDS011;63878;55.624;37.304;2022-09-29T15:07:22;4.45;;;3.05;;
74912;SDS011;63878;55.624;37.304;2022-09-29T15:09:54;5.13;;;3.25;;
74912;SDS011;63878;55.624;37.304;2022-09-29T15:12:22;5.85;;;3.88;;
74912;SDS011;63878;55.624;37.304;2022-09-29T15:14:53;4.15;;;3.15;;
74912;SDS011;63878;55.624;37.304;2022-09-29T15:20:22;7.97;;;3.65;;
74912;SDS011;63878;55.624;37.304;2022-09-29T15:28:01;6.72;;;4.15;;
74912;SDS011;63878;55.624;37.304;2022-09-29T15:30:39;11.52;;;10.35;;
74912;SDS011;63878;55.624;37.304;2022-09-29T15:33:24;4.82;;;4.20;;
74912;SDS011;63878;55.624;37.304;2022-09-29T15:36:00;6.50;;;4.35;;
74912;SDS011;63878;55.624;37.304;2022-09-29T15:38:30;5.07;;;4.10;;
74912;SDS011;63878;55.624;37.304;2022-09-29T15:41:01;8.00;;;5.20;;
74912;SDS011;63878;55.624;37.304;2022-09-29T15:43:40;10.60;;;5.63;;
74912;SDS011;63878;55.624;37.304;2022-09-29T15:46:15;7.03;;;5.10;;
74912;SDS011;63878;55.624;37.304;2022-09-29T15:51:31;6.70;;;4.78;;
74912;SDS011;63878;55.624;37.304;2022-09-29T15:53:56;6.72;;;5.40;;
74912;SDS011;63878;55.624;37.304;2022-09-29T15:56:22;8.45;;;6.18;;
74912;SDS011;63878;55.624;37.304;2022-09-29T15:58:47;6.82;;;4.53;;
74912;SDS011;63878;55.624;37.304;2022-09-29T16:01:13;11.98;;;6.55;;
74912;SDS011;63878;55.624;37.304;2022-09-29T16:03:43;8.10;;;4.88;;
74912;SDS011;63878;55.624;37.304;2022-09-29T16:06:19;11.80;;;6.65;;
74912;SDS011;63878;55.624;37.304;2022-09-29T16:08:50;7.93;;;6.45;;
74912;SDS011;63878;55.624;37.304;2022-09-29T16:11:20;9.32;;;5.80;;
74912;SDS011;63878;55.624;37.304;2022-09-29T16:13:49;11.75;;;6.18;;
74912;SDS011;63878;55.624;37.304;2022-09-29T16:16:18;8.13;;;5.50;;
74912;SDS011;63878;55.624;37.304;2022-09-29T16:18:51;7.85;;;6.35;;
74912;SDS011;63878;55.624;37.304;2022-09-29T16:21:19;11.27;;;7.05;;
74912;SDS011;63878;55.624;37.304;2022-09-29T16:29:00;10.18;;;6.43;;
74912;SDS011;63878;55.624;37.304;2022-09-29T16:31:30;11.63;;;7.82;;
74912;SDS011;63878;55.624;37.304;2022-09-29T16:33:57;11.23;;;7.20;;
74912;SDS011;63878;55.624;37.304;2022-09-29T16:36:25;10.13;;;6.93;;
74912;SDS011;63878;55.624;37.304;2022-09-29T16:38:56;11.85;;;5.57;;
74912;SDS011;63878;55.624;37.304;2022-09-29T16:43:50;9.68;;;6.72;;
74912;SDS011;63878;55.624;37.304;2022-09-29T16:46:17;9.40;;;6.13;;
74912;SDS011;63878;55.624;37.304;2022-09-29T16:48:45;11.02;;;6.40;;
74912;SDS011;63878;55.624;37.304;2022-09-29T16:51:15;8.95;;;6.28;;
74912;SDS011;63878;55.624;37.304;2022-09-29T16:53:42;9.75;;;5.90;;
74912;SDS011;63878;55.624;37.304;2022-09-29T16:56:10;8.00;;;5.75;;
74912;SDS011;63878;55.624;37.304;2022-09-29T16:58:41;7.97;;;6.03;;
74912;SDS011;63878;55.624;37.304;2022-09-29T17:01:07;8.20;;;5.72;;
74912;SDS011;63878;55.624;37.304;2022-09-29T17:03:33;7.90;;;5.95;;
74912;SDS011;63878;55.624;37.304;2022-09-29T17:05:59;8.52;;;5.60;;
74912;SDS011;63878;55.624;37.304;2022-09-29T17:08:25;8.18;;;6.32;;
74912;SDS011;63878;55.624;37.304;2022-09-29T17:10:53;9.68;;;6.80;;
74912;SDS011;63878;55.624;37.304;2022-09-29T17:13:21;11.88;;;7.72;;
74912;SDS011;63878;55.624;37.304;2022-09-29T17:15:48;9.05;;;5.63;;
74912;SDS011;63878;55.624;37.304;2022-09-29T17:18:16;8.60;;;6.00;;
74912;SDS011;63878;55.624;37.304;2022-09-29T17:20:44;10.13;;;6.75;;
74912;SDS011;63878;55.624;37.304;2022-09-29T17:23:10;8.27;;;5.50;;
74912;SDS011;63878;55.624;37.304;2022-09-29T17:25:40;7.82;;;6.32;;
74912;SDS011;63878;55.624;37.304;2022-09-29T17:28:13;7.40;;;5.07;;
74912;SDS011;63878;55.624;37.304;2022-09-29T17:30:43;7.30;;;4.60;;
74912;SDS011;63878;55.624;37.304;2022-09-29T17:33:11;8.30;;;5.95;;
74912;SDS011;63878;55.624;37.304;2022-09-29T17:35:39;9.00;;;5.97;;
74912;SDS011;63878;55.624;37.304;2022-09-29T17:38:07;10.32;;;6.43;;
74912;SDS011;63878;55.624;37.304;2022-09-29T17:43:22;10.40;;;6.38;;
74912;SDS011;63878;55.624;37.304;2022-09-29T17:45:48;10.70;;;5.40;;
74912;SDS011;63878;55.624;37.304;2022-09-29T17:48:14;10.40;;;6.72;;
74912;SDS011;63878;55.624;37.304;2022-09-29T17:55:36;7.57;;;5.60;;
74912;SDS011;63878;55.624;37.304;2022-09-29T17:58:02;9.70;;;6.43;;
74912;SDS011;63878;55.624;37.304;2022-09-29T18:00:35;9.93;;;7.32;;
74912;SDS011;63878;55.624;37.304;2022-09-29T18:03:06;12.40;;;6.97;;
74912;SDS011;63878;55.624;37.304;2022-09-29T18:05:36;11.35;;;6.68;;
74912;SDS011;63878;55.624;37.304;2022-09-29T18:08:02;10.27;;;6.85;;
74912;SDS011;63878;55.624;37.304;2022-09-29T18:10:32;9.85;;;6.30;;
74912;SDS011;63878;55.624;37.304;2022-09-29T18:13:06;12.27;;;7.65;;
74912;SDS011;63878;55.624;37.304;2022-09-29T18:15:32;13.40;;;9.50;;
74912;SDS011;63878;55.624;37.304;2022-09-29T18:18:00;47.05;;;33.88;;
74912;SDS011;63878;55.624;37.304;2022-09-29T18:20:28;12.50;;;8.30;;
74912;SDS011;63878;55.624;37.304;2022-09-29T18:22:56;27.23;;;17.25;;
74912;SDS011;63878;55.624;37.304;2022-09-29T18:25:21;9.00;;;6.95;;
74912;SDS011;63878;55.624;37.304;2022-09-29T18:27:47;9.82;;;6.40;;
74912;SDS011;63878;55.624;37.304;2022-09-29T18:30:19;10.63;;;6.25;;
74912;SDS011;63878;55.624;37.304;2022-09-29T18:32:48;13.48;;;7.30;;
74912;SDS011;63878;55.624;37.304;2022-09-29T18:35:27;8.50;;;6.15;;